createdAt,value
2019-02-06T00:00:59.698Z,100996.80
2019-02-06T00:03:30.117Z,101005.25
2019-02-06T00:06:00.570Z,101013.88
2019-02-06T00:08:31.143Z,101009.61
2019-02-06T00:11:01.598Z,101007.93
2019-02-06T00:13:32.482Z,101007.31
2019-02-06T00:16:03.030Z,101008.45
2019-02-06T00:18:34.276Z,101000.27
2019-02-06T00:21:05.102Z,100996.84
2019-02-06T00:23:35.550Z,100989.93
2019-02-06T00:26:06.358Z,100992.48
2019-02-06T00:28:36.983Z,100996.91
2019-02-06T00:31:07.430Z,100988.61
2019-02-06T00:33:38.271Z,100988.16
2019-02-06T00:36:09.107Z,100982.87
2019-02-06T00:38:39.615Z,100987.00
2019-02-06T00:41:10.440Z,100982.23
2019-02-06T00:43:40.884Z,100986.66
2019-02-06T00:46:11.711Z,100987.13
2019-02-06T00:48:42.322Z,100989.45
2019-02-06T00:51:13.257Z,100992.50
2019-02-06T00:53:43.707Z,100994.27
2019-02-06T00:56:14.148Z,100987.69
2019-02-06T00:58:44.632Z,100983.80
2019-02-06T01:01:15.068Z,100990.16
2019-02-06T01:03:45.562Z,100983.42
2019-02-06T01:06:16.379Z,100977.50
2019-02-06T01:23:04.052Z,100987.64
2019-02-06T01:25:34.571Z,100984.77
2019-02-06T01:28:05.411Z,100981.90
2019-02-06T01:30:46.472Z,100985.94
2019-02-06T01:33:17.214Z,100982.06
2019-02-06T01:35:50.225Z,100984.01
2019-02-06T01:38:20.725Z,100978.55
2019-02-06T01:40:51.525Z,100981.03
2019-02-06T01:43:22.280Z,100980.95
2019-02-06T01:45:53.102Z,100979.79
2019-02-06T01:48:23.595Z,100975.92
2019-02-06T01:50:54.041Z,100974.05
2019-02-06T01:53:24.904Z,100969.22
2019-02-06T01:55:55.374Z,100974.64
2019-02-06T01:58:25.861Z,100971.25
2019-02-06T02:00:57.001Z,100972.93
2019-02-06T02:03:27.447Z,100977.16
2019-02-06T02:06:02.320Z,100970.05
2019-02-06T02:08:32.638Z,100962.39
2019-02-06T02:11:03.360Z,100959.13
2019-02-06T02:13:33.861Z,100959.13
2019-02-06T02:16:04.849Z,100957.28
2019-02-06T02:18:35.300Z,100953.80
2019-02-06T02:21:06.178Z,100948.02
2019-02-06T02:23:36.619Z,100943.27
2019-02-06T02:26:07.127Z,100944.34
2019-02-06T02:28:37.578Z,100930.30
2019-02-06T02:31:08.819Z,100933.81
2019-02-06T02:33:39.338Z,100929.14
2019-02-06T02:36:15.721Z,100929.30
2019-02-06T02:38:41.964Z,100917.84
2019-02-06T02:41:12.400Z,100916.05
2019-02-06T02:43:42.862Z,100916.37
2019-02-06T02:46:13.322Z,100914.13
2019-02-06T02:48:43.769Z,100913.34
2019-02-06T02:51:14.520Z,100908.22
2019-02-06T02:53:44.962Z,100898.64
2019-02-06T02:56:15.453Z,100893.73
2019-02-06T02:58:46.079Z,100886.15
2019-02-06T03:01:34.827Z,100888.91
2019-02-06T03:04:11.592Z,100884.44
2019-02-06T03:06:43.888Z,100888.59
2019-02-06T03:09:14.447Z,100891.31
2019-02-06T03:11:44.887Z,100888.23
2019-02-06T03:14:15.432Z,100889.68
2019-02-06T03:16:45.874Z,100881.63
2019-02-06T03:19:17.311Z,100875.95
2019-02-06T03:21:48.091Z,100879.38
2019-02-06T03:24:18.845Z,100876.75
2019-02-06T03:26:49.689Z,100881.86
2019-02-06T03:29:20.132Z,100890.47
2019-02-06T03:31:50.617Z,100895.19
2019-02-06T03:34:21.072Z,100892.95
2019-02-06T03:36:51.915Z,100891.39
2019-02-06T03:39:22.386Z,100890.60
2019-02-06T03:41:53.465Z,100890.60
2019-02-06T03:44:23.958Z,100891.28
2019-02-06T03:46:54.406Z,100888.13
2019-02-06T03:49:24.843Z,100888.36
2019-02-06T03:51:55.407Z,100883.70
2019-02-06T03:54:25.842Z,100878.52
2019-02-06T03:56:56.329Z,100873.41
2019-02-06T03:59:27.849Z,100859.70
2019-02-06T04:01:58.574Z,100858.08
2019-02-06T04:04:29.044Z,100851.41
2019-02-06T04:07:01.250Z,100852.25
2019-02-06T04:09:32.531Z,100861.52
2019-02-06T04:12:03.296Z,100861.20
2019-02-06T04:14:34.098Z,100856.94
2019-02-06T04:17:04.583Z,100850.65
2019-02-06T04:19:35.145Z,100844.98
2019-02-06T04:22:05.802Z,100838.80
2019-02-06T04:24:36.632Z,100831.75
2019-02-06T04:27:07.069Z,100826.64
2019-02-06T04:29:37.541Z,100836.47
2019-02-06T04:32:07.984Z,100841.27
2019-02-06T04:34:38.477Z,100840.87
2019-02-06T04:37:09.128Z,100837.70
2019-02-06T04:39:39.922Z,100831.59
2019-02-06T04:42:10.399Z,100828.11
2019-02-06T04:44:40.855Z,100819.18
2019-02-06T04:47:11.622Z,100809.05
2019-02-06T04:49:42.545Z,100809.89
2019-02-06T04:52:13.013Z,100796.03
2019-02-06T04:54:43.457Z,100788.71
2019-02-06T04:57:13.903Z,100789.44
2019-02-06T04:59:44.406Z,100782.77
2019-02-06T05:02:14.838Z,100767.35
2019-02-06T05:04:45.662Z,100763.14
2019-02-06T05:07:19.233Z,100753.30
2019-02-06T05:09:48.265Z,100754.57
2019-02-06T05:12:18.759Z,100747.42
2019-02-06T05:14:49.639Z,100751.38
2019-02-06T05:17:20.086Z,100745.48
2019-02-06T05:19:50.714Z,100746.41
2019-02-06T05:22:21.170Z,100743.55
2019-02-06T05:24:51.720Z,100740.91
2019-02-06T05:27:22.458Z,100742.72
2019-02-06T05:29:53.003Z,100740.52
2019-02-06T05:32:23.754Z,100727.52
2019-02-06T05:34:54.813Z,100733.72
2019-02-06T05:37:32.060Z,100726.73
2019-02-06T05:39:57.490Z,100732.61
2019-02-06T05:42:27.998Z,100723.56
2019-02-06T05:44:58.470Z,100718.66
2019-02-06T05:47:28.912Z,100720.67
2019-02-06T05:49:59.417Z,100721.28
2019-02-06T05:52:30.747Z,100721.86
2019-02-06T05:55:04.485Z,100727.17
2019-02-06T05:57:33.358Z,100724.53
2019-02-06T06:00:05.297Z,100722.69
2019-02-06T06:02:35.795Z,100715.82
2019-02-06T06:05:06.891Z,100727.70
2019-02-06T06:07:45.389Z,100725.06
2019-02-06T06:10:12.394Z,100727.38
2019-02-06T06:12:43.387Z,100714.91
2019-02-06T06:15:15.668Z,100719.38
2019-02-06T06:17:46.467Z,100722.02
2019-02-06T06:20:17.781Z,100719.78
2019-02-06T06:22:48.362Z,100709.19
2019-02-06T06:25:20.603Z,100710.87
2019-02-06T06:27:51.460Z,100715.30
2019-02-06T06:30:22.150Z,100710.20
2019-02-06T06:32:52.576Z,100712.09
2019-02-06T06:35:23.061Z,100703.92
2019-02-06T06:38:02.341Z,100703.05
2019-02-06T06:40:26.052Z,100698.15
2019-02-06T06:42:56.887Z,100689.85
2019-02-06T06:45:27.326Z,100694.34
2019-02-06T06:47:57.794Z,100688.31
2019-02-06T06:50:28.339Z,100685.69
2019-02-06T06:52:59.142Z,100687.75
2019-02-06T06:55:29.863Z,100690.30
2019-02-06T06:58:00.302Z,100689.67
2019-02-06T07:00:31.807Z,100688.45
2019-02-06T07:03:02.305Z,100689.20
2019-02-06T07:05:33.751Z,100685.19
2019-02-06T07:08:11.223Z,100681.23
2019-02-06T07:10:37.221Z,100685.43
2019-02-06T07:13:08.212Z,100686.66
2019-02-06T07:15:38.630Z,100687.67
2019-02-06T07:18:09.114Z,100689.86
2019-02-06T07:20:39.878Z,100692.41
2019-02-06T07:23:10.331Z,100684.02
2019-02-06T07:25:41.147Z,100678.92
2019-02-06T07:28:14.366Z,100690.59
2019-02-06T07:30:45.177Z,100683.45
2019-02-06T07:33:16.019Z,100678.92
2019-02-06T07:35:46.647Z,100677.58
2019-02-06T07:38:24.303Z,100669.67
2019-02-06T07:40:49.267Z,100669.06
2019-02-06T07:43:19.746Z,100677.22
2019-02-06T07:45:50.184Z,100672.33
2019-02-06T07:48:21.000Z,100676.20
2019-02-06T07:50:51.657Z,100671.37
2019-02-06T07:53:22.106Z,100676.70
2019-02-06T07:55:52.586Z,100680.91
2019-02-06T07:58:23.191Z,100682.03
2019-02-06T08:00:53.632Z,100670.85
2019-02-06T08:03:24.203Z,100678.60
2019-02-06T08:05:55.080Z,100677.02
2019-02-06T08:08:35.731Z,100669.16
2019-02-06T08:10:57.706Z,100660.31
2019-02-06T08:13:28.147Z,100663.06
2019-02-06T08:15:59.462Z,100664.77
2019-02-06T08:18:30.436Z,100660.27
2019-02-06T08:21:01.216Z,100671.03
2019-02-06T08:23:32.078Z,100660.17
2019-02-06T08:26:02.513Z,100665.70
2019-02-06T08:28:32.979Z,100673.82
2019-02-06T08:31:03.605Z,100653.84
2019-02-06T08:33:34.091Z,100669.23
2019-02-06T08:36:04.907Z,100656.17
2019-02-06T08:38:47.052Z,100648.92
2019-02-06T08:41:07.954Z,100644.19
2019-02-06T08:43:38.583Z,100652.72
2019-02-06T08:46:09.054Z,100645.37
2019-02-06T08:48:39.503Z,100642.60
2019-02-06T08:51:09.986Z,100642.17
2019-02-06T08:53:40.431Z,100634.41
2019-02-06T08:56:11.479Z,100645.95
2019-02-06T08:58:41.948Z,100639.44
2019-02-06T09:01:13.851Z,100653.39
2019-02-06T09:03:44.693Z,100649.50
2019-02-06T09:06:15.834Z,100655.92
2019-02-06T09:08:46.877Z,100651.39
2019-02-06T09:11:19.050Z,100650.08
2019-02-06T09:13:50.107Z,100646.31
2019-02-06T09:16:20.947Z,100650.09
2019-02-06T09:18:51.489Z,100651.96
2019-02-06T09:21:22.301Z,100654.70
2019-02-06T09:23:53.450Z,100646.32
2019-02-06T09:26:24.790Z,100632.33
2019-02-06T09:28:55.422Z,100620.81
2019-02-06T09:31:26.170Z,100621.30
2019-02-06T09:33:56.617Z,100608.83
2019-02-06T09:36:27.116Z,100615.42
2019-02-06T09:38:57.599Z,100614.30
2019-02-06T09:41:28.046Z,100611.30
2019-02-06T09:43:58.538Z,100609.22
2019-02-06T09:46:28.979Z,100615.52
2019-02-06T09:48:59.429Z,100612.32
2019-02-06T09:51:30.119Z,100608.05
2019-02-06T09:54:00.535Z,100605.33
2019-02-06T09:56:30.974Z,100608.12
2019-02-06T09:59:01.601Z,100601.20
2019-02-06T10:01:32.066Z,100604.89
2019-02-06T10:04:02.884Z,100608.48
2019-02-06T10:06:33.758Z,100617.07
2019-02-06T10:09:08.188Z,100616.03
2019-02-06T10:11:38.719Z,100609.45
2019-02-06T10:14:09.373Z,100621.31
2019-02-06T10:16:39.891Z,100613.83
2019-02-06T10:19:10.603Z,100621.84
2019-02-06T10:21:41.094Z,100617.42
2019-02-06T10:24:11.698Z,100616.03
2019-02-06T10:26:42.136Z,100610.49
2019-02-06T10:29:12.709Z,100617.91
2019-02-06T10:31:43.148Z,100610.22
2019-02-06T10:34:13.590Z,100600.26
2019-02-06T10:36:44.087Z,100610.95
2019-02-06T10:39:14.582Z,100607.12
2019-02-06T10:41:45.023Z,100592.87
2019-02-06T10:44:15.508Z,100588.98
2019-02-06T10:46:46.426Z,100591.90
2019-02-06T10:49:16.869Z,100584.45
2019-02-06T10:51:47.364Z,100571.01
2019-02-06T10:54:18.136Z,100562.75
2019-02-06T10:56:48.587Z,100559.48
2019-02-06T10:59:19.407Z,100554.36
2019-02-06T11:01:50.036Z,100552.82
2019-02-06T11:04:20.475Z,100549.50
2019-02-06T11:06:50.984Z,100544.43
2019-02-06T11:09:21.429Z,100533.66
2019-02-06T11:11:52.266Z,100545.21
2019-02-06T11:14:22.985Z,100538.01
2019-02-06T11:16:53.827Z,100552.67
2019-02-06T11:19:24.271Z,100539.82
2019-02-06T11:21:55.096Z,100533.58
2019-02-06T11:24:26.831Z,100531.90
2019-02-06T11:26:58.118Z,100528.54
2019-02-06T11:29:28.610Z,100529.78
2019-02-06T11:31:59.426Z,100524.11
2019-02-06T11:34:29.969Z,100527.59
2019-02-06T11:37:00.480Z,100524.42
2019-02-06T11:39:30.933Z,100530.93
2019-02-06T11:42:01.470Z,100528.93
2019-02-06T11:44:31.957Z,100524.51
2019-02-06T11:47:02.397Z,100523.78
2019-02-06T11:49:38.518Z,100516.55
2019-02-06T11:52:09.240Z,100522.11
2019-02-06T11:54:40.182Z,100512.19
2019-02-06T11:57:10.628Z,100504.61
2019-02-06T11:59:41.084Z,100501.00
2019-02-06T12:02:12.191Z,100499.34
2019-02-06T12:04:43.147Z,100508.41
2019-02-06T12:07:13.590Z,100508.81
2019-02-06T12:09:44.035Z,100505.24
2019-02-06T12:12:14.548Z,100498.78
2019-02-06T12:14:44.992Z,100502.50
2019-02-06T12:17:15.436Z,100505.27
2019-02-06T12:19:46.056Z,100507.58
2019-02-06T12:22:16.502Z,100491.35
2019-02-06T12:24:47.834Z,100480.00
2019-02-06T12:27:18.708Z,100474.87
2019-02-06T12:29:49.614Z,100464.60
2019-02-06T12:32:20.064Z,100455.55
2019-02-06T12:34:50.558Z,100459.91
2019-02-06T12:37:21.385Z,100462.44
2019-02-06T12:39:51.883Z,100461.63
2019-02-06T12:42:22.780Z,100460.09
2019-02-06T12:44:53.221Z,100453.11
2019-02-06T12:47:26.780Z,100454.70
2019-02-06T12:49:56.570Z,100458.31
2019-02-06T12:52:27.020Z,100457.13
2019-02-06T12:54:57.793Z,100455.23
2019-02-06T12:57:36.457Z,100452.94
2019-02-06T13:00:00.431Z,100453.89
2019-02-06T13:02:30.881Z,100458.02
2019-02-06T13:05:01.705Z,100447.66
2019-02-06T13:07:33.396Z,100447.72
2019-02-06T13:10:03.855Z,100442.53
2019-02-06T13:12:34.343Z,100441.33
2019-02-06T13:15:05.787Z,100440.72
2019-02-06T13:17:36.230Z,100439.80
2019-02-06T13:20:10.166Z,100439.10
2019-02-06T13:22:40.611Z,100440.43
2019-02-06T13:25:11.511Z,100449.47
2019-02-06T13:27:42.002Z,100436.61
2019-02-06T13:30:24.829Z,100434.45
2019-02-06T13:32:55.618Z,100431.55
2019-02-06T13:35:26.068Z,100422.14
2019-02-06T13:37:56.522Z,100427.64
2019-02-06T13:40:28.053Z,100426.19
2019-02-06T13:42:58.558Z,100425.41
2019-02-06T13:45:35.003Z,100427.95
2019-02-06T13:48:05.809Z,100432.05
2019-02-06T13:50:36.724Z,100429.40
2019-02-06T13:53:07.600Z,100434.78
2019-02-06T13:55:38.171Z,100429.80
2019-02-06T13:58:19.708Z,100430.80
2019-02-06T14:00:41.882Z,100426.33
2019-02-06T14:03:12.322Z,100428.23
2019-02-06T14:05:46.719Z,100416.07
2019-02-06T14:08:17.652Z,100413.55
2019-02-06T14:10:58.407Z,100411.51
2019-02-06T14:13:23.007Z,100414.88
2019-02-06T14:15:53.565Z,100406.08
2019-02-06T14:18:24.126Z,100400.52
2019-02-06T14:20:55.116Z,100392.67
2019-02-06T14:23:36.194Z,100396.41
2019-02-06T14:26:22.184Z,100388.81
2019-02-06T14:29:48.808Z,100383.88
2019-02-06T14:33:07.497Z,100381.56
2019-02-06T14:36:31.014Z,100379.52
2019-02-06T14:39:27.328Z,100373.84
2019-02-06T14:42:27.191Z,100370.23
2019-02-06T14:45:34.687Z,100370.48
2019-02-06T14:48:34.170Z,100376.00
2019-02-06T14:51:45.627Z,100378.20
2019-02-06T14:54:51.502Z,100377.48
2019-02-06T14:58:17.799Z,100370.57
2019-02-06T15:01:17.099Z,100374.83
2019-02-06T15:03:59.493Z,100369.03
2019-02-06T15:07:13.959Z,100371.19
2019-02-06T15:10:43.214Z,100371.91
2019-02-06T15:14:03.729Z,100367.70
2019-02-06T15:17:21.685Z,100358.13
2019-02-06T15:20:39.494Z,100358.51
2019-02-06T15:23:36.425Z,100358.16
2019-02-06T15:27:11.013Z,100350.80
2019-02-06T15:30:43.843Z,100348.02
2019-02-06T15:34:06.530Z,100348.60
2019-02-06T15:37:03.175Z,100347.00
2019-02-06T15:39:59.699Z,100339.99
2019-02-06T15:43:11.327Z,100336.26
2019-02-06T15:46:24.738Z,100332.98
2019-02-06T15:49:47.500Z,100325.86
2019-02-06T15:52:48.896Z,100316.94
2019-02-06T15:56:09.671Z,100324.91
2019-02-06T15:59:20.775Z,100316.20
2019-02-06T16:02:30.756Z,100315.13
2019-02-06T16:05:32.914Z,100314.05
2019-02-06T16:08:56.640Z,100308.28
2019-02-06T16:12:16.236Z,100306.20
2019-02-06T16:15:16.557Z,100312.97
2019-02-06T16:18:20.606Z,100312.10
2019-02-06T16:21:25.163Z,100311.52
2019-02-06T16:24:15.207Z,100311.27
2019-02-06T16:27:16.798Z,100312.13
2019-02-06T16:30:21.043Z,100308.48
2019-02-06T16:33:33.736Z,100311.60
2019-02-06T16:36:33.096Z,100304.94
2019-02-06T16:39:57.016Z,100295.89
2019-02-06T16:43:14.195Z,100295.52
2019-02-06T16:46:14.503Z,100280.19
2019-02-06T16:49:26.362Z,100277.70
2019-02-06T16:52:33.835Z,100263.95
2019-02-06T16:55:34.919Z,100265.14
2019-02-06T16:58:40.280Z,100254.17
2019-02-06T17:01:58.834Z,100261.30
2019-02-06T17:04:35.648Z,100265.14
2019-02-06T17:07:31.694Z,100261.30
2019-02-06T17:10:36.192Z,100259.63
2019-02-06T17:13:46.791Z,100256.15
2019-02-06T17:16:46.141Z,100250.10
2019-02-06T17:19:42.710Z,100246.25
2019-02-06T17:22:34.600Z,100251.80
2019-02-06T17:25:49.132Z,100251.55
2019-02-06T17:28:57.358Z,100249.86
2019-02-06T17:32:07.155Z,100249.64
2019-02-06T17:35:39.755Z,100245.02
2019-02-06T17:38:52.935Z,100235.86
2019-02-06T17:41:54.686Z,100232.87
2019-02-06T17:45:19.702Z,100223.55
2019-02-06T17:48:13.223Z,100217.30
2019-02-06T17:50:58.229Z,100215.02
2019-02-06T17:53:43.149Z,100201.97
2019-02-06T17:56:13.717Z,100211.75
2019-02-06T17:58:45.126Z,100212.11
2019-02-06T18:01:39.692Z,100214.52
2019-02-06T18:04:16.018Z,100207.52
2019-02-06T18:06:46.508Z,100216.67
2019-02-06T18:09:18.396Z,100220.16
2019-02-06T18:11:51.751Z,100213.41
2019-02-06T18:14:22.674Z,100214.86
2019-02-06T18:16:53.145Z,100214.61
2019-02-06T18:19:23.653Z,100214.15
2019-02-06T18:21:54.757Z,100216.77
2019-02-06T18:24:25.550Z,100205.79
2019-02-06T18:26:56.517Z,100206.16
2019-02-06T18:29:27.348Z,100205.45
2019-02-06T18:31:58.169Z,100199.16
2019-02-06T18:34:28.662Z,100208.56
2019-02-06T18:36:59.499Z,100201.93
2019-02-06T18:39:30.047Z,100195.52
2019-02-06T18:42:01.210Z,100196.00
2019-02-06T18:44:32.435Z,100194.35
2019-02-06T18:47:03.354Z,100195.31
2019-02-06T18:49:33.978Z,100196.63
2019-02-06T18:52:06.122Z,100197.09
2019-02-06T18:54:36.616Z,100192.53
2019-02-06T18:57:07.152Z,100192.28
2019-02-06T18:59:37.654Z,100191.41
2019-02-06T19:02:08.188Z,100191.28
2019-02-06T19:04:39.164Z,100196.13
2019-02-06T19:07:09.641Z,100206.23
2019-02-06T19:09:40.593Z,100207.56
2019-02-06T19:12:11.427Z,100195.89
2019-02-06T19:14:41.889Z,100199.28
2019-02-06T19:17:14.886Z,100187.23
2019-02-06T19:19:46.515Z,100183.75
2019-02-06T19:22:18.999Z,100178.29
2019-02-06T19:24:49.720Z,100189.27
2019-02-06T19:27:20.631Z,100191.91
2019-02-06T19:29:52.533Z,100195.77
2019-02-06T19:32:24.439Z,100196.50
2019-02-06T19:34:55.319Z,100191.79
2019-02-06T19:37:26.986Z,100179.28
2019-02-06T19:39:57.608Z,100165.66
2019-02-06T19:42:28.175Z,100156.51
2019-02-06T19:44:58.629Z,100146.86
2019-02-06T19:47:30.717Z,100151.08
2019-02-06T19:50:01.547Z,100149.27
2019-02-06T19:52:36.392Z,100142.52
2019-02-06T19:55:08.670Z,100136.14
2019-02-06T19:57:39.123Z,100146.40
2019-02-06T20:00:12.939Z,100139.49
2019-02-06T20:02:43.749Z,100152.41
2019-02-06T20:05:15.586Z,100143.59
2019-02-06T20:07:47.268Z,100135.77
2019-02-06T20:10:30.231Z,100153.36
2019-02-06T20:13:10.581Z,100155.39
2019-02-06T20:15:33.280Z,100149.09
2019-02-06T20:18:03.817Z,100144.03
2019-02-06T20:20:34.634Z,100140.89
2019-02-06T20:23:05.586Z,100145.48
2019-02-06T20:25:36.076Z,100145.00
2019-02-06T20:28:07.902Z,100142.47
2019-02-06T20:30:38.363Z,100144.03
2019-02-06T20:33:08.868Z,100141.71
2019-02-06T20:35:40.598Z,100139.38
2019-02-06T20:38:11.706Z,100133.02
2019-02-06T20:40:43.316Z,100123.88
2019-02-06T20:43:21.685Z,100130.73
2019-02-06T20:45:45.962Z,100124.69
2019-02-06T20:48:16.894Z,100120.22
2019-02-06T20:50:48.230Z,100121.20
2019-02-06T20:53:19.691Z,100114.67
2019-02-06T20:55:50.846Z,100103.70
2019-02-06T20:58:24.031Z,100103.45
2019-02-06T21:00:54.470Z,100101.06
2019-02-06T21:03:26.767Z,100103.83
2019-02-06T21:05:57.314Z,100109.74
2019-02-06T21:08:27.760Z,100105.27
2019-02-06T21:10:58.530Z,100103.58
2019-02-06T21:13:33.161Z,100091.41
2019-02-06T21:16:01.103Z,100097.08
2019-02-06T21:18:31.956Z,100095.42
2019-02-06T21:21:02.922Z,100099.97
2019-02-06T21:23:33.365Z,100096.37
2019-02-06T21:26:03.849Z,100093.48
2019-02-06T21:28:34.422Z,100092.87
2019-02-06T21:31:06.575Z,100092.86
2019-02-06T21:33:37.414Z,100079.67
2019-02-06T21:36:08.254Z,100082.27
2019-02-06T21:38:38.800Z,100075.40
2019-02-06T21:41:09.290Z,100077.84
2019-02-06T21:43:44.159Z,100067.58
2019-02-06T21:46:12.278Z,100078.98
2019-02-06T21:48:43.051Z,100079.94
2019-02-06T21:51:13.506Z,100076.22
2019-02-06T21:53:44.338Z,100073.42
2019-02-06T21:56:14.846Z,100066.41
2019-02-06T21:58:45.463Z,100071.83
2019-02-06T22:01:15.911Z,100071.34
2019-02-06T22:03:46.767Z,100075.30
2019-02-06T22:06:17.212Z,100064.59
2019-02-06T22:08:47.978Z,100066.61
2019-02-06T22:11:19.070Z,100062.20
2019-02-06T22:13:55.285Z,100059.49
2019-02-06T22:16:21.650Z,100057.92
2019-02-06T22:18:53.347Z,100054.32
2019-02-06T22:21:23.795Z,100051.22
2019-02-06T22:23:54.609Z,100047.02
2019-02-06T22:26:25.103Z,100060.36
2019-02-06T22:28:55.875Z,100049.27
2019-02-06T22:31:26.390Z,100053.00
2019-02-06T22:33:56.891Z,100048.23
2019-02-06T22:36:27.334Z,100052.67
2019-02-06T22:38:57.786Z,100058.47
2019-02-06T22:41:28.583Z,100056.78
2019-02-06T22:44:06.706Z,100065.91
2019-02-06T22:46:32.658Z,100057.58
2019-02-06T22:49:03.493Z,100047.83
2019-02-06T22:51:34.214Z,100036.06
2019-02-06T22:54:04.986Z,100035.44
2019-02-06T22:56:35.427Z,100028.43
2019-02-06T22:59:06.081Z,100029.05
2019-02-06T23:01:43.777Z,100018.66
2019-02-06T23:04:14.221Z,100014.70
2019-02-06T23:06:44.665Z,100013.50
2019-02-06T23:09:15.171Z,100016.52
2019-02-06T23:11:45.610Z,100005.38
2019-02-06T23:14:19.347Z,100010.16
2019-02-06T23:16:49.201Z,100005.81
2019-02-06T23:19:20.985Z,100012.55
2019-02-06T23:21:51.423Z,100005.56
2019-02-06T23:24:21.914Z,100000.88
2019-02-06T23:26:52.352Z,99999.39
2019-02-06T23:29:23.239Z,99991.95
2019-02-06T23:31:53.739Z,99993.77
2019-02-06T23:34:24.175Z,99987.61
2019-02-06T23:36:54.609Z,99975.52
2019-02-06T23:39:25.366Z,99977.03
2019-02-06T23:41:56.274Z,99977.78
2019-02-06T23:44:29.095Z,99968.39
2019-02-06T23:46:59.562Z,99968.77
2019-02-06T23:49:29.997Z,99959.73
2019-02-06T23:52:00.431Z,99968.15
2019-02-06T23:54:31.679Z,99977.90
2019-02-06T23:57:02.102Z,99973.19
2019-02-06T23:59:32.654Z,99960.09
